Berlin, ND (58415)

2:29 AM CDT on July 22, 2014 (GMT -0500)
Edgeley Main (KNDEDGEL3) Elev 1562 ft | 46.36 °N, 98.71 °W | Change Station

Current weather conditions updated 10 minutes ago

Overcast
Overcast
64.2 °F
Feels Like 64.2 °F
N
4.2
Wind Variable Wind from WSW

Today is forecast to be Cooler than yesterday.

Today
High -- | Low -- °F
--% Chance of Precip.
Yesterday
High -- | Low -- °F
Precip. -- in
6:03 AM 9:16 PM
Waning Crescent, 19% visible
Pressure 29.94 in
Visibility 10.0 miles
Clouds Mostly Cloudy 800 ft
Overcast 1600 ft
Dew Point 63 °F
Humidity 96%
Rainfall 0.00 in
Snow Depth Not available.
UV 0 out of 12
Pollen 7.10 out of 12
Air Quality Not available.
Flu Activity Sporadic
SPECI KJMS 220721Z AUTO 33009KT 10SM BKN008 OVC016 19/18 A2994 RMK AO2 CIG 007V012 T01940178

More Conditions Fewer Conditions

Pressure 29.94 in
Visibility 10.0 miles
Clouds Mostly Cloudy 800 ft
Overcast 1600 ft
Dew Point 63 °F
Humidity 96%
Rainfall 0.00 in
Snow Depth Not available.
UV 0 out of 12
Pollen 7.10 out of 12
Air Quality Not available.
Flu Activity Sporadic
SPECI KJMS 220721Z AUTO 33009KT 10SM BKN008 OVC016 19/18 A2994 RMK AO2 CIG 007V012 T01940178

More Conditions Fewer Conditions

10-Day Weather Forecast

LIGHTNING

Thunderstorms are forecast for your area. Cloud conditions might be right for producing strikes in the next few days, though lightning itself cannot be forecasted.

Lightning is a visible electrical discharge produced by a thunderstorm, based on the build up of oppositely charged particles within a cloud and from cloud to ground.

Know how to stay safe in a lightning storm.

Check out these Lightning WunderPhotos!

Almanac

Astronomy

Jul. 22, 2014 Rise Set
Actual Time 6:03 AM CDT 9:16 PM CDT
Civil Twilight 5:27 AM CDT 9:52 PM CDT
Nautical Twilight 4:39 AM CDT 10:40 PM CDT
Astronomical Twilight 3:40 AM CDT 11:38 PM CDT
Moon 2:40 AM CDT 5:54 PM CDT
Length of Visible Light 16h 25m
Length of Day
15h 13m
Tomorrow will be 2m 9s shorter.
Waning Crescent, 19% of the Moon is Illuminated
Today
Waning Crescent
Jul 26
New
Aug 3
First Quarter
Aug 10
Full
Aug 17
Last Quarter

Today's Extremes

State Highs State Lows

Community

WunderPhotos

Upload Photos

1,736,194 photos uploaded!

Nearby

Snow Depth

Station Depth Elevation
No new snow has been reported.

Earthquake Activity

City Distance Mag. Time & Date
No recent earthquake activity has been reported nearby.
Minimum magnitude displayed is 2.5.

Coastal Water Temperatures

Place Temperature
No Stations Reporting

Nearby Weather Stations

Station Location Temp. Dew Point Humidity Wind Precip. Elev Updated Type
Edgeley Main, Edgeley, ND 64.2 °F 63 °F 96% WSW  at  4.2 mph - / hr 1562 ft 2:19 AM CDT Normal
Edgeley, Edgeley, ND 65.0 °F 64 °F 95% NNW  at  0.0 mph 0.00 in / hr 1585 ft 2:20 AM CDT Rapid Fire
Monango, ND 64.3 °F 63 °F 94% NW  at  2.0 mph 0.00 in / hr 1479 ft 2:15 AM CDT Normal

Show More Stations Show Fewer Stations